createdAt,value
2023-03-05T00:00:38.079Z,26.77
2023-03-05T00:03:48.265Z,24.73
2023-03-05T00:06:56.620Z,24.93
2023-03-05T00:10:07.817Z,22.77
2023-03-05T00:13:15.925Z,26.97
2023-03-05T00:16:26.763Z,23.73
2023-03-05T00:19:36.406Z,26.03
2023-03-05T00:22:44.597Z,26.90
2023-03-05T00:25:53.622Z,26.77
2023-03-05T00:29:01.781Z,24.43
2023-03-05T00:32:09.994Z,26.47
2023-03-05T00:35:19.724Z,28.33
2023-03-05T00:38:29.701Z,25.83
2023-03-05T00:41:40.251Z,25.40
2023-03-05T00:44:48.620Z,29.53
2023-03-05T00:47:56.759Z,26.73
2023-03-05T00:51:06.992Z,25.93
2023-03-05T00:54:15.587Z,26.90
2023-03-05T00:57:23.997Z,23.60
2023-03-05T01:00:32.236Z,29.40
2023-03-05T01:03:40.923Z,26.13
2023-03-05T01:06:50.785Z,29.50
2023-03-05T01:09:59.163Z,29.20
2023-03-05T01:13:07.281Z,28.63
2023-03-05T01:16:16.066Z,25.70
2023-03-05T01:19:24.312Z,29.67
2023-03-05T01:22:34.234Z,28.17
2023-03-05T01:25:42.497Z,28.20
2023-03-05T01:28:50.768Z,34.67
2023-03-05T01:31:58.890Z,29.73
2023-03-05T01:35:09.324Z,32.20
2023-03-05T01:38:19.359Z,26.77
2023-03-05T01:41:28.284Z,31.17
2023-03-05T01:44:36.800Z,33.07
2023-03-05T01:47:45.878Z,30.53
2023-03-05T01:50:54.532Z,32.53
2023-03-05T01:54:08.169Z,34.63
2023-03-05T01:57:22.970Z,35.47
2023-03-05T02:00:37.180Z,33.73
2023-03-05T02:03:46.306Z,30.83
2023-03-05T02:06:54.432Z,33.63
2023-03-05T02:10:15.539Z,37.63
2023-03-05T02:13:26.706Z,31.97
2023-03-05T02:16:36.958Z,30.63
2023-03-05T02:19:55.349Z,33.77
2023-03-05T02:23:05.264Z,30.40
2023-03-05T02:26:13.689Z,39.70
2023-03-05T02:29:22.636Z,32.40
2023-03-05T02:32:31.093Z,34.23
2023-03-05T02:35:39.803Z,31.87
2023-03-05T02:38:49.766Z,30.80
2023-03-05T02:41:58.475Z,35.83
2023-03-05T02:45:08.469Z,34.47
2023-03-05T02:48:16.594Z,38.57
2023-03-05T02:51:25.058Z,33.17
2023-03-05T02:54:35.393Z,33.83
2023-03-05T02:57:45.250Z,35.07
2023-03-05T03:00:53.639Z,36.60
2023-03-05T03:04:01.835Z,33.43
2023-03-05T03:07:09.948Z,43.77
2023-03-05T03:10:20.817Z,35.23
2023-03-05T03:13:28.933Z,35.93
2023-03-05T03:16:37.610Z,36.33
2023-03-05T03:19:47.141Z,33.37
2023-03-05T03:22:55.275Z,38.83
2023-03-05T03:26:04.824Z,37.30
2023-03-05T03:29:12.943Z,38.53
2023-03-05T03:32:21.396Z,35.57
2023-03-05T03:35:29.760Z,34.33
2023-03-05T03:38:38.080Z,34.03
2023-03-05T03:41:51.141Z,38.00
2023-03-05T03:45:00.498Z,43.80
2023-03-05T03:48:08.644Z,35.67
2023-03-05T03:51:16.756Z,35.37
2023-03-05T03:54:26.490Z,39.40
2023-03-05T03:57:35.970Z,36.10
2023-03-05T04:00:44.500Z,36.27
2023-03-05T04:03:52.639Z,36.53
2023-03-05T04:07:00.780Z,36.17
2023-03-05T04:10:10.474Z,40.20
2023-03-05T04:13:20.379Z,37.37
2023-03-05T04:16:30.499Z,35.63
2023-03-05T04:19:38.972Z,35.57
2023-03-05T04:22:47.247Z,37.77
2023-03-05T04:25:55.388Z,41.40
2023-03-05T04:29:05.374Z,39.00
2023-03-05T04:32:13.592Z,40.33
2023-03-05T04:35:21.833Z,37.33
2023-03-05T04:38:29.953Z,38.63
2023-03-05T04:41:38.420Z,37.90
2023-03-05T04:44:48.534Z,36.47
2023-03-05T04:47:56.748Z,36.80
2023-03-05T04:51:05.435Z,33.37
2023-03-05T04:54:13.846Z,40.10
2023-03-05T04:57:23.203Z,40.30
2023-03-05T05:00:33.850Z,36.43
2023-03-05T05:03:41.973Z,33.43
2023-03-05T05:06:50.187Z,33.37
2023-03-05T05:09:58.570Z,36.83
2023-03-05T05:13:07.074Z,36.20
2023-03-05T05:16:16.637Z,33.20
2023-03-05T05:19:24.789Z,36.13
2023-03-05T05:22:33.273Z,35.87
2023-03-05T05:25:43.104Z,32.70
2023-03-05T05:28:51.774Z,29.87
2023-03-05T05:32:01.517Z,29.00
2023-03-05T05:35:11.580Z,27.87
2023-03-05T05:38:20.426Z,29.90
2023-03-05T05:41:28.862Z,32.90
2023-03-05T05:44:36.972Z,27.70
2023-03-05T05:47:46.530Z,27.03
2023-03-05T05:50:54.883Z,28.07
2023-03-05T05:54:03.260Z,26.53
2023-03-05T05:57:11.522Z,26.73
2023-03-05T06:00:20.857Z,26.27
2023-03-05T06:03:30.367Z,29.90
2023-03-05T06:06:39.003Z,27.70
2023-03-05T06:09:47.118Z,31.37
2023-03-05T06:12:55.492Z,26.83
2023-03-05T06:16:07.961Z,25.37
2023-03-05T06:19:17.712Z,22.90
2023-03-05T06:22:25.854Z,26.97
2023-03-05T06:25:37.915Z,28.57
2023-03-05T06:28:46.666Z,25.03
2023-03-05T06:31:54.790Z,25.63
2023-03-05T06:35:05.412Z,22.00
2023-03-05T06:38:13.627Z,26.67
2023-03-05T06:41:24.691Z,23.77
2023-03-05T06:44:33.103Z,23.70
2023-03-05T06:47:41.310Z,24.70
2023-03-05T06:50:50.816Z,22.07
2023-03-05T06:54:03.470Z,26.97
2023-03-05T06:57:13.556Z,22.77
2023-03-05T07:00:24.356Z,23.27
2023-03-05T07:03:32.947Z,22.60
2023-03-05T07:06:43.936Z,26.90
2023-03-05T07:09:53.936Z,23.33
2023-03-05T07:13:02.443Z,23.97
2023-03-05T07:16:15.435Z,25.33
2023-03-05T07:19:24.022Z,25.07
2023-03-05T07:22:33.828Z,24.63
2023-03-05T07:25:42.214Z,23.37
2023-03-05T07:28:51.220Z,22.37
2023-03-05T07:31:59.435Z,21.77
2023-03-05T07:35:09.545Z,19.17
2023-03-05T07:38:19.208Z,21.63
2023-03-05T07:41:27.453Z,22.97
2023-03-05T07:44:35.679Z,22.77
2023-03-05T07:47:44.843Z,22.07
2023-03-05T07:51:03.152Z,19.87
2023-03-05T07:54:12.924Z,20.13
2023-03-05T07:57:21.134Z,21.43
2023-03-05T08:00:29.433Z,20.83
2023-03-05T08:03:37.812Z,22.07
2023-03-05T08:06:47.022Z,18.43
2023-03-05T08:09:57.082Z,19.60
2023-03-05T08:13:05.567Z,24.10
2023-03-05T08:16:17.015Z,18.00
2023-03-05T08:19:25.441Z,20.10
2023-03-05T08:22:35.445Z,18.50
2023-03-05T08:25:45.068Z,19.70
2023-03-05T08:28:53.788Z,19.00
2023-03-05T08:32:02.324Z,18.67
2023-03-05T08:35:10.980Z,21.80
2023-03-05T08:38:21.044Z,19.93
2023-03-05T08:41:31.141Z,23.67
2023-03-05T08:44:39.486Z,20.63
2023-03-05T08:51:51.847Z,21.57
2023-03-05T08:55:00.313Z,20.40
2023-03-05T08:58:10.176Z,15.00
2023-03-05T09:01:19.041Z,16.57
2023-03-05T09:04:27.515Z,18.27
2023-03-05T09:07:35.692Z,18.23
2023-03-05T09:10:44.127Z,19.90
2023-03-05T09:13:53.624Z,19.33
2023-03-05T09:17:03.417Z,19.97
2023-03-05T09:20:15.471Z,18.40
2023-03-05T09:23:24.775Z,21.33
2023-03-05T09:26:33.594Z,15.33
2023-03-05T09:29:43.399Z,19.03
2023-03-05T09:32:52.176Z,17.93
2023-03-05T09:36:01.265Z,17.27
2023-03-05T09:39:09.419Z,19.07
2023-03-05T09:42:38.732Z,21.17
2023-03-05T09:46:10.483Z,15.73
2023-03-05T09:49:31.838Z,19.60
2023-03-05T09:52:46.878Z,19.77
2023-03-05T09:55:58.884Z,19.63
2023-03-05T09:59:24.105Z,25.00
2023-03-05T10:02:42.358Z,18.57
2023-03-05T10:06:13.731Z,21.13
2023-03-05T10:09:45.367Z,19.07
2023-03-05T10:12:58.439Z,16.23
2023-03-05T10:16:37.517Z,16.73
2023-03-05T10:20:23.539Z,16.67
2023-03-05T10:24:04.359Z,17.00
2023-03-05T10:27:21.125Z,20.50
2023-03-05T10:31:06.013Z,16.50
2023-03-05T10:34:41.528Z,15.47
2023-03-05T10:38:35.265Z,17.67
2023-03-05T10:42:02.362Z,13.33
2023-03-05T10:45:25.395Z,16.07
2023-03-05T10:48:41.953Z,15.03
2023-03-05T10:51:58.078Z,13.93
2023-03-05T10:55:18.977Z,15.10
2023-03-05T10:58:28.937Z,13.70
2023-03-05T11:01:38.583Z,13.43
2023-03-05T11:04:48.242Z,12.80
2023-03-05T11:07:56.506Z,13.87
2023-03-05T11:11:17.841Z,16.47
2023-03-05T11:14:33.134Z,13.83
2023-03-05T11:17:44.646Z,15.53
2023-03-05T11:20:53.730Z,16.13
2023-03-05T11:24:07.405Z,13.03
2023-03-05T11:27:36.469Z,12.13
2023-03-05T11:30:59.214Z,15.57
2023-03-05T11:34:24.398Z,17.83
2023-03-05T11:37:34.219Z,16.83
2023-03-05T11:40:42.613Z,15.87
2023-03-05T11:43:54.494Z,19.73
2023-03-05T11:47:16.133Z,17.97
2023-03-05T11:50:27.880Z,15.90
2023-03-05T11:53:39.946Z,11.53
2023-03-05T11:56:49.400Z,17.60
2023-03-05T12:00:01.896Z,15.20
2023-03-05T12:03:17.655Z,15.47
2023-03-05T12:06:35.880Z,15.00
2023-03-05T12:09:49.426Z,18.20
2023-03-05T12:13:07.856Z,12.73
2023-03-05T12:16:30.649Z,14.70
2023-03-05T12:19:51.082Z,15.83
2023-03-05T12:22:59.427Z,12.90
2023-03-05T12:26:07.757Z,14.57
2023-03-05T12:29:31.348Z,16.23
2023-03-05T12:33:02.193Z,13.70
2023-03-05T12:36:39.747Z,13.10
2023-03-05T12:39:58.562Z,16.80
2023-03-05T12:43:27.719Z,15.40
2023-03-05T12:46:38.006Z,17.07
2023-03-05T12:49:49.533Z,16.87
2023-03-05T12:53:07.591Z,14.80
2023-03-05T12:56:25.154Z,18.07
2023-03-05T12:59:44.710Z,14.90
2023-03-05T13:02:58.591Z,13.83
2023-03-05T13:06:27.590Z,15.23
2023-03-05T13:09:36.494Z,13.67
2023-03-05T13:12:54.087Z,14.17
2023-03-05T13:16:03.264Z,11.53
2023-03-05T13:19:21.761Z,11.00
2023-03-05T13:22:33.054Z,11.90
2023-03-05T13:25:41.303Z,11.57
2023-03-05T13:29:08.337Z,15.27
2023-03-05T13:32:27.490Z,13.73
2023-03-05T13:35:36.244Z,13.37
2023-03-05T13:38:49.105Z,10.53
2023-03-05T13:42:05.201Z,13.90
2023-03-05T13:45:26.668Z,11.00
2023-03-05T13:48:35.048Z,12.40
2023-03-05T13:51:46.360Z,12.47
2023-03-05T13:54:56.264Z,10.13
2023-03-05T13:58:04.685Z,12.30
2023-03-05T14:01:22.463Z,9.07
2023-03-05T14:04:36.849Z,10.03
2023-03-05T14:07:49.439Z,10.77
2023-03-05T14:11:15.584Z,8.63
2023-03-05T14:14:27.351Z,9.50
2023-03-05T14:17:43.735Z,9.00
2023-03-05T14:21:09.760Z,9.20
2023-03-05T14:24:26.651Z,8.13
2023-03-05T14:27:37.851Z,10.50
2023-03-05T14:30:47.494Z,7.97
2023-03-05T14:34:03.132Z,7.23
2023-03-05T14:37:23.004Z,10.27
2023-03-05T14:40:35.174Z,13.43
2023-03-05T14:43:45.173Z,22.03
2023-03-05T14:46:54.350Z,7.40
2023-03-05T14:50:02.584Z,7.17
2023-03-05T14:53:16.852Z,9.87
2023-03-05T14:56:28.913Z,6.80
2023-03-05T14:59:38.351Z,8.83
2023-03-05T15:02:46.752Z,10.23
2023-03-05T15:05:59.158Z,10.37
2023-03-05T15:09:09.063Z,10.73
2023-03-05T15:12:18.975Z,11.07
2023-03-05T15:15:28.828Z,12.73
2023-03-05T15:18:37.125Z,10.30
2023-03-05T15:21:46.965Z,8.67
2023-03-05T15:24:55.095Z,10.80
2023-03-05T15:28:03.626Z,14.70
2023-03-05T15:31:13.141Z,10.53
2023-03-05T15:34:21.259Z,10.73
2023-03-05T15:37:29.410Z,9.30
2023-03-05T15:40:37.583Z,11.27
2023-03-05T15:43:45.706Z,9.60
2023-03-05T15:46:56.775Z,9.13
2023-03-05T15:50:06.023Z,9.83
2023-03-05T15:53:18.107Z,13.30
2023-03-05T15:56:26.437Z,11.80
2023-03-05T15:59:36.882Z,10.47
2023-03-05T16:02:46.555Z,8.70
2023-03-05T16:05:55.038Z,11.73
2023-03-05T16:09:06.058Z,11.13
2023-03-05T16:12:21.918Z,9.43
2023-03-05T16:15:33.091Z,9.90
2023-03-05T16:18:47.326Z,11.73
2023-03-05T16:21:55.529Z,12.53
2023-03-05T16:25:03.816Z,14.30
2023-03-05T16:28:12.006Z,14.00
2023-03-05T16:31:21.438Z,17.33
2023-03-05T16:34:32.428Z,17.87
2023-03-05T16:37:41.501Z,12.03
2023-03-05T16:41:07.189Z,15.67
2023-03-05T16:44:16.423Z,14.00
2023-03-05T16:47:24.534Z,13.97
2023-03-05T16:50:36.905Z,16.27
2023-03-05T16:53:45.067Z,32.17
2023-03-05T16:56:53.664Z,16.23
2023-03-05T17:00:04.053Z,15.80
2023-03-05T17:03:13.366Z,15.87
2023-03-05T17:06:25.646Z,12.63
2023-03-05T17:09:34.521Z,15.03
2023-03-05T17:12:43.647Z,11.80
2023-03-05T17:15:54.653Z,13.27
2023-03-05T17:19:05.400Z,16.07
2023-03-05T17:22:16.360Z,14.03
2023-03-05T17:25:24.613Z,15.53
2023-03-05T17:28:33.330Z,14.43
2023-03-05T17:31:42.211Z,12.17
2023-03-05T17:34:55.163Z,12.50
2023-03-05T17:38:07.468Z,14.63
2023-03-05T17:41:17.248Z,16.30
2023-03-05T17:44:25.677Z,14.07
2023-03-05T17:47:34.536Z,12.17
2023-03-05T17:50:44.949Z,13.93
2023-03-05T17:53:54.578Z,13.33
2023-03-05T17:57:02.979Z,11.93
2023-03-05T18:00:18.451Z,10.03
2023-03-05T18:03:26.918Z,11.23
2023-03-05T18:06:35.316Z,10.03
2023-03-05T18:09:45.410Z,9.47
2023-03-05T18:12:55.026Z,9.90
2023-03-05T18:16:03.271Z,10.37
2023-03-05T18:19:11.836Z,10.93
2023-03-05T18:22:20.196Z,12.37
2023-03-05T18:25:31.760Z,10.77
2023-03-05T18:28:40.207Z,12.13
2023-03-05T18:31:48.580Z,12.97
2023-03-05T18:34:56.855Z,13.83
2023-03-05T18:38:05.190Z,15.40
2023-03-05T18:41:22.203Z,23.63
2023-03-05T18:44:30.541Z,16.83
2023-03-05T18:47:39.090Z,15.90
2023-03-05T18:50:51.198Z,25.63
2023-03-05T18:53:59.458Z,35.17
2023-03-05T18:57:09.154Z,40.97
2023-03-05T19:00:24.151Z,33.83
2023-03-05T19:03:33.544Z,35.13
2023-03-05T19:06:43.443Z,38.00
2023-03-05T19:09:58.935Z,34.87
2023-03-05T19:13:18.700Z,26.50
2023-03-05T19:16:33.781Z,19.13
2023-03-05T19:19:42.824Z,23.70
2023-03-05T19:22:51.168Z,23.10
2023-03-05T19:26:01.599Z,27.80
2023-03-05T19:29:11.390Z,35.90
2023-03-05T19:32:21.821Z,54.00
2023-03-05T19:35:30.425Z,44.33
2023-03-05T19:38:39.618Z,49.73
2023-03-05T19:41:48.071Z,34.93
2023-03-05T19:44:59.695Z,19.00
2023-03-05T19:48:08.818Z,21.83
2023-03-05T19:51:19.775Z,17.23
2023-03-05T19:54:28.375Z,14.30
2023-03-05T19:57:36.669Z,15.70
2023-03-05T20:00:46.317Z,14.67
2023-03-05T20:03:57.234Z,15.07
2023-03-05T20:07:07.154Z,24.97
2023-03-05T20:10:15.638Z,29.80
2023-03-05T20:13:25.429Z,20.97
2023-03-05T20:16:37.664Z,19.00
2023-03-05T20:19:45.855Z,16.67
2023-03-05T20:22:55.177Z,12.63
2023-03-05T20:26:06.726Z,16.17
2023-03-05T20:29:18.142Z,31.37
2023-03-05T20:32:28.307Z,19.03
2023-03-05T20:35:36.677Z,18.50
2023-03-05T20:38:45.789Z,17.80
2023-03-05T20:41:54.187Z,21.83
2023-03-05T20:45:02.417Z,20.40
2023-03-05T20:48:12.072Z,37.77
2023-03-05T20:51:24.375Z,39.53
2023-03-05T20:54:32.729Z,29.97
2023-03-05T20:57:42.017Z,27.17
2023-03-05T21:00:50.355Z,36.57
2023-03-05T21:04:00.581Z,47.53
2023-03-05T21:07:09.633Z,49.63
2023-03-05T21:10:18.582Z,29.47
2023-03-05T21:13:27.259Z,46.33
2023-03-05T21:16:35.770Z,29.10
2023-03-05T21:19:45.375Z,27.93
2023-03-05T21:22:53.605Z,28.00
2023-03-05T21:26:04.014Z,27.80
2023-03-05T21:29:12.229Z,27.87
2023-03-05T21:32:20.860Z,30.90
2023-03-05T21:35:32.498Z,26.93
2023-03-05T21:38:40.837Z,23.70
2023-03-05T21:41:49.095Z,33.13
2023-03-05T21:44:57.438Z,36.20
2023-03-05T21:48:06.944Z,30.47
2023-03-05T21:51:16.969Z,29.90
2023-03-05T21:54:26.779Z,31.00
2023-03-05T21:57:35.567Z,27.73
2023-03-05T22:00:44.149Z,27.63
2023-03-05T22:03:52.422Z,26.40
2023-03-05T22:07:02.265Z,21.03
2023-03-05T22:10:15.549Z,19.23
2023-03-05T22:13:23.812Z,22.63
2023-03-05T22:16:32.029Z,22.97
2023-03-05T22:19:40.523Z,17.90
2023-03-05T22:22:50.491Z,17.90
2023-03-05T22:26:01.199Z,23.10
2023-03-05T22:29:11.752Z,18.37
2023-03-05T22:32:20.162Z,35.53
2023-03-05T22:35:29.927Z,31.07
2023-03-05T22:38:40.108Z,16.73
2023-03-05T22:41:48.327Z,16.80
2023-03-05T22:45:00.533Z,15.80
2023-03-05T22:48:10.429Z,24.60
2023-03-05T22:51:20.712Z,23.00
2023-03-05T22:54:31.638Z,24.27
2023-03-05T22:57:40.202Z,22.13
2023-03-05T23:00:48.710Z,19.67
2023-03-05T23:04:03.305Z,19.20
2023-03-05T23:07:11.714Z,16.63
2023-03-05T23:10:26.981Z,29.97
2023-03-05T23:13:35.895Z,24.77
2023-03-05T23:16:44.174Z,21.77
2023-03-05T23:19:52.910Z,33.83
2023-03-05T23:23:02.238Z,32.50
2023-03-05T23:26:12.181Z,20.57
2023-03-05T23:29:20.719Z,22.80
2023-03-05T23:32:30.576Z,18.97
2023-03-05T23:35:42.246Z,19.13
2023-03-05T23:38:51.886Z,18.63
2023-03-05T23:42:01.724Z,15.60
2023-03-05T23:45:13.366Z,22.80
2023-03-05T23:48:22.949Z,28.03
2023-03-05T23:51:31.516Z,28.23
2023-03-05T23:54:39.919Z,27.00
2023-03-05T23:57:49.988Z,23.77
